Time;durP1;ratioP1;P1;durP2;ratioP2;P2;SDS_P1;SDS_P2;PMS_P1;PMS_P2;Temp;Humidity;BMP_temperature;BMP_pressure;BME280_temperature;BME280_humidity;BME280_pressure;Samples;Min_cycle;Max_cycle;Signal;HPM_P1;HPM_P2
2022/08/20 00:01:06;;;;;;;8.15;5.18;;;23.30;99.90;;;;;;4108616;28;20539;-69
2022/08/20 00:03:14;;;;;;;7.65;5.85;;;23.40;99.90;;;;;;4112025;28;20050;-69
2022/08/20 00:05:23;;;;;;;7.15;5.75;;;23.40;99.90;;;;;;4110481;28;20034;-70
2022/08/20 00:07:24;;;;;;;10.68;5.72;;;23.40;99.90;;;;;;4110443;28;20109;-70
2022/08/20 00:09:24;;;;;;;7.90;5.30;;;23.30;99.90;;;;;;4112020;28;20039;-70
2022/08/20 00:11:26;;;;;;;7.72;5.28;;;23.30;99.90;;;;;;4108667;28;20146;-70
2022/08/20 00:13:32;;;;;;;8.25;5.93;;;23.30;99.90;;;;;;4111027;28;20038;-70
2022/08/20 00:15:35;;;;;;;8.00;6.03;;;23.30;99.90;;;;;;4110980;28;20038;-70
2022/08/20 00:17:36;;;;;;;9.52;6.32;;;23.30;99.90;;;;;;4111972;28;20110;-70
2022/08/20 00:19:37;;;;;;;8.48;5.90;;;23.20;99.90;;;;;;4108682;28;20386;-70
2022/08/20 00:21:37;;;;;;;11.32;5.93;;;23.20;99.90;;;;;;4108453;28;20038;-70
2022/08/20 00:23:41;;;;;;;8.48;6.35;;;23.20;99.90;;;;;;4112031;28;20027;-70
2022/08/20 00:25:43;;;;;;;7.15;5.53;;;23.20;99.90;;;;;;4111274;28;20446;-69
2022/08/20 00:27:44;;;;;;;7.80;5.13;;;23.20;99.90;;;;;;4111959;28;20058;-70
2022/08/20 00:29:44;;;;;;;8.88;5.80;;;23.10;99.90;;;;;;4111882;28;20039;-69
2022/08/20 00:31:45;;;;;;;11.27;5.50;;;23.10;99.90;;;;;;4108446;28;20034;-70
2022/08/20 00:33:46;;;;;;;8.20;5.45;;;23.20;99.90;;;;;;4110465;28;20027;-69
2022/08/20 00:35:50;;;;;;;8.25;5.50;;;23.10;99.90;;;;;;4111063;28;20499;-70
2022/08/20 00:37:52;;;;;;;8.07;5.63;;;23.20;99.90;;;;;;4111947;28;20366;-69
2022/08/20 00:39:52;;;;;;;7.13;5.45;;;23.10;99.90;;;;;;4112126;28;20482;-69
2022/08/20 00:41:55;;;;;;;8.52;4.75;;;23.10;99.90;;;;;;4106845;28;20035;-69
2022/08/20 00:44:14;;;;;;;8.05;4.90;;;23.10;99.90;;;;;;4111605;28;20035;-69
2022/08/20 00:46:25;;;;;;;6.22;4.90;;;23.10;99.90;;;;;;4106837;28;20087;-68
2022/08/20 00:48:30;;;;;;;7.80;5.25;;;23.10;99.90;;;;;;4111806;28;20039;-68
2022/08/20 00:50:35;;;;;;;8.48;4.93;;;23.10;99.90;;;;;;4108602;28;20133;-69
2022/08/20 00:52:37;;;;;;;8.75;5.82;;;23.10;99.90;;;;;;4111310;28;20130;-68
2022/08/20 00:54:50;;;;;;;7.60;5.13;;;23.10;99.90;;;;;;4117333;28;20051;-69
2022/08/20 00:57:02;;;;;;;6.35;4.97;;;23.10;99.90;;;;;;4112975;28;20037;-68
2022/08/20 00:59:10;;;;;;;8.03;5.30;;;23.10;99.90;;;;;;4116599;28;20039;-68
2022/08/20 01:01:12;;;;;;;5.68;4.65;;;23.10;99.90;;;;;;4111126;28;20044;-69
2022/08/20 01:03:15;;;;;;;6.97;5.07;;;23.00;99.90;;;;;;4119251;28;20506;-68
2022/08/20 01:05:17;;;;;;;5.70;4.30;;;23.00;99.90;;;;;;4116151;28;20105;-69
2022/08/20 01:07:19;;;;;;;5.63;5.03;;;23.00;99.90;;;;;;4118626;28;20026;-68
2022/08/20 01:09:20;;;;;;;6.13;4.40;;;23.00;99.90;;;;;;4117530;28;20039;-68
2022/08/20 01:11:29;;;;;;;6.30;4.25;;;23.00;99.90;;;;;;4116794;28;20277;-68
2022/08/20 01:13:30;;;;;;;5.90;4.43;;;23.00;99.90;;;;;;4121567;28;20033;-68
2022/08/20 01:15:31;;;;;;;5.53;4.88;;;23.00;99.90;;;;;;4121829;28;20038;-68
2022/08/20 01:17:35;;;;;;;6.50;4.45;;;23.00;99.90;;;;;;4123245;28;20441;-68
2022/08/20 01:19:51;;;;;;;5.20;4.30;;;23.00;99.90;;;;;;4121240;28;20045;-68
2022/08/20 01:21:53;;;;;;;6.13;4.68;;;23.00;99.90;;;;;;4111839;28;20054;-68
2022/08/20 01:24:01;;;;;;;6.70;5.03;;;23.10;99.90;;;;;;4120112;28;20034;-68
2022/08/20 01:26:03;;;;;;;4.75;4.15;;;23.00;99.90;;;;;;4116354;28;20038;-69
2022/08/20 01:28:03;;;;;;;6.47;4.70;;;23.00;99.90;;;;;;4113707;28;20030;-68
2022/08/20 01:30:05;;;;;;;5.38;4.18;;;23.00;99.90;;;;;;4101015;28;20049;-68
2022/08/20 01:32:06;;;;;;;7.53;4.88;;;23.00;99.90;;;;;;4115353;28;20041;-68
2022/08/20 01:34:18;;;;;;;6.05;4.80;;;23.00;99.90;;;;;;4117991;28;20062;-69
2022/08/20 01:36:24;;;;;;;6.50;4.70;;;23.00;99.90;;;;;;4116686;28;20038;-68
2022/08/20 01:38:26;;;;;;;6.85;5.03;;;22.90;99.90;;;;;;4117305;28;20088;-68
2022/08/20 01:40:55;;;;;;;6.32;4.53;;;22.90;99.90;;;;;;4118481;28;20303;-69
2022/08/20 01:42:55;;;;;;;5.72;4.45;;;22.90;99.90;;;;;;4098235;28;20046;-68
2022/08/20 01:44:56;;;;;;;5.05;4.47;;;22.90;99.90;;;;;;4117524;28;20491;-69
2022/08/20 01:47:22;;;;;;;5.72;4.97;;;22.90;99.90;;;;;;4117663;28;20085;-69
2022/08/20 01:49:34;;;;;;;4.78;4.05;;;22.80;99.90;;;;;;4114619;28;20023;-68
2022/08/20 01:51:34;;;;;;;5.03;4.35;;;22.80;99.90;;;;;;4112751;28;20155;-68
2022/08/20 01:53:40;;;;;;;5.63;4.60;;;22.80;99.90;;;;;;4119187;28;20502;-68
2022/08/20 01:55:41;;;;;;;6.40;4.32;;;22.80;99.90;;;;;;4116730;28;20406;-68
2022/08/20 01:57:42;;;;;;;5.28;4.20;;;22.80;99.90;;;;;;4121115;28;20037;-68
2022/08/20 01:59:44;;;;;;;5.05;4.50;;;22.80;99.90;;;;;;4119375;28;20437;-68
2022/08/20 02:01:44;;;;;;;7.18;3.95;;;22.80;99.90;;;;;;4115732;28;20397;-68
2022/08/20 02:03:45;;;;;;;4.68;4.00;;;22.80;99.90;;;;;;4119682;28;20039;-68
2022/08/20 02:05:46;;;;;;;5.75;4.07;;;22.80;99.90;;;;;;4119330;28;20058;-68
2022/08/20 02:07:47;;;;;;;4.18;3.72;;;22.80;99.90;;;;;;4116622;28;20035;-68
2022/08/20 02:09:49;;;;;;;4.25;3.85;;;22.80;99.90;;;;;;4111878;28;20065;-68
2022/08/20 02:11:52;;;;;;;4.78;3.95;;;22.80;99.90;;;;;;4115121;28;20053;-67
2022/08/20 02:13:53;;;;;;;5.97;4.43;;;22.80;99.90;;;;;;4116334;28;20062;-68
2022/08/20 02:15:54;;;;;;;6.00;4.55;;;22.80;99.90;;;;;;4115922;28;20473;-68
2022/08/20 02:17:56;;;;;;;6.45;4.70;;;22.80;99.90;;;;;;4116887;28;20030;-68
2022/08/20 02:20:00;;;;;;;7.57;5.63;;;22.80;99.90;;;;;;4109383;28;20098;-68
2022/08/20 02:22:09;;;;;;;5.32;4.45;;;22.70;99.90;;;;;;4109747;28;20393;-69
2022/08/20 02:24:11;;;;;;;5.60;4.25;;;22.70;99.90;;;;;;4116184;28;20049;-68
2022/08/20 02:26:11;;;;;;;5.78;4.55;;;22.70;99.90;;;;;;4116399;28;20098;-68
2022/08/20 02:28:15;;;;;;;6.18;4.95;;;22.70;99.90;;;;;;4117606;28;20031;-68
2022/08/20 02:30:19;;;;;;;5.50;4.47;;;22.70;99.90;;;;;;4116494;28;20108;-69
2022/08/20 02:32:20;;;;;;;6.53;4.70;;;22.70;99.90;;;;;;4113584;28;20060;-69
2022/08/20 02:34:21;;;;;;;5.88;4.75;;;22.70;99.90;;;;;;4118431;28;20370;-68
2022/08/20 02:36:21;;;;;;;5.18;4.38;;;22.70;99.90;;;;;;4115709;28;20031;-68
2022/08/20 02:38:22;;;;;;;7.15;4.80;;;22.70;99.90;;;;;;4118275;28;20490;-68
2022/08/20 02:40:25;;;;;;;6.07;5.05;;;22.70;99.90;;;;;;4112043;28;20041;-68
2022/08/20 02:42:30;;;;;;;9.43;6.40;;;22.80;99.90;;;;;;4113009;28;20039;-68
2022/08/20 02:44:31;;;;;;;6.10;5.00;;;22.80;99.90;;;;;;4117037;28;20541;-68
2022/08/20 02:46:32;;;;;;;4.60;4.10;;;22.80;99.90;;;;;;4120026;28;20053;-68
2022/08/20 02:48:33;;;;;;;5.72;4.97;;;22.80;99.90;;;;;;4118138;28;20022;-68
2022/08/20 02:50:34;;;;;;;7.72;5.22;;;22.80;99.90;;;;;;4112825;28;20117;-68
2022/08/20 02:52:34;;;;;;;5.22;4.45;;;22.80;99.90;;;;;;4119092;28;20402;-68
2022/08/20 02:54:35;;;;;;;5.70;4.72;;;22.80;99.90;;;;;;4115163;28;20035;-68
2022/08/20 02:56:37;;;;;;;5.93;4.75;;;22.80;99.90;;;;;;4120690;28;20034;-68
2022/08/20 02:58:39;;;;;;;6.68;4.95;;;22.80;99.90;;;;;;4117913;28;20034;-68
2022/08/20 03:00:40;;;;;;;7.60;5.20;;;22.90;99.90;;;;;;4112968;28;20502;-68
2022/08/20 03:02:41;;;;;;;4.88;4.38;;;22.80;99.90;;;;;;4119574;28;20033;-68
2022/08/20 03:04:42;;;;;;;5.40;4.43;;;22.80;99.90;;;;;;4101327;28;20039;-69
2022/08/20 03:06:42;;;;;;;6.65;5.43;;;22.80;99.90;;;;;;4114319;28;20053;-68
2022/08/20 03:08:44;;;;;;;10.30;5.05;;;22.80;99.90;;;;;;4118817;28;20057;-68
2022/08/20 03:10:46;;;;;;;6.85;5.72;;;22.80;99.90;;;;;;4111915;28;20109;-68
2022/08/20 03:12:46;;;;;;;6.35;5.07;;;22.80;99.90;;;;;;4112781;28;20081;-68
2022/08/20 03:14:47;;;;;;;6.00;5.15;;;22.80;99.90;;;;;;4113257;28;20038;-68
2022/08/20 03:16:48;;;;;;;6.38;5.00;;;22.90;99.90;;;;;;4112254;28;20031;-68
2022/08/20 03:18:49;;;;;;;4.90;4.22;;;22.80;99.90;;;;;;4112813;28;20051;-68
2022/08/20 03:20:50;;;;;;;5.88;4.63;;;22.80;99.90;;;;;;4108565;28;20038;-69
2022/08/20 03:22:51;;;;;;;6.80;5.22;;;22.80;99.90;;;;;;4112899;28;20035;-68
2022/08/20 03:24:52;;;;;;;6.30;5.30;;;22.90;99.90;;;;;;4112801;28;20030;-68
2022/08/20 03:26:52;;;;;;;7.95;4.85;;;22.80;99.90;;;;;;4111339;28;20522;-68
2022/08/20 03:28:53;;;;;;;7.25;5.35;;;22.80;99.90;;;;;;4112565;28;20044;-69
2022/08/20 03:30:55;;;;;;;7.45;5.70;;;22.90;99.90;;;;;;4109042;28;20046;-69
2022/08/20 03:32:56;;;;;;;6.15;5.00;;;22.80;99.90;;;;;;4112712;28;20033;-68
2022/08/20 03:34:57;;;;;;;6.32;5.22;;;22.80;99.90;;;;;;4112428;28;20034;-69
2022/08/20 03:36:57;;;;;;;5.88;5.05;;;22.80;99.90;;;;;;4111842;28;20478;-67
2022/08/20 03:39:02;;;;;;;6.93;5.32;;;22.80;99.90;;;;;;4112457;28;20027;-68
2022/08/20 03:41:03;;;;;;;6.15;4.72;;;22.90;99.90;;;;;;4109089;28;20055;-68
2022/08/20 03:43:08;;;;;;;7.60;5.00;;;22.80;99.90;;;;;;4108192;28;20086;-68
2022/08/20 03:45:11;;;;;;;6.32;5.07;;;22.80;99.90;;;;;;4107815;28;20062;-69
2022/08/20 03:47:11;;;;;;;5.70;4.75;;;22.80;99.90;;;;;;4112058;28;20042;-68
2022/08/20 03:49:12;;;;;;;5.38;4.60;;;22.80;99.90;;;;;;4112103;28;20117;-68
2022/08/20 03:51:12;;;;;;;7.53;5.22;;;22.90;99.90;;;;;;4110482;28;20027;-68
2022/08/20 03:53:14;;;;;;;6.90;5.72;;;22.80;99.90;;;;;;4111721;28;20038;-68
2022/08/20 03:55:14;;;;;;;6.03;5.35;;;22.80;99.90;;;;;;4111299;28;20034;-68
2022/08/20 03:57:15;;;;;;;5.65;4.85;;;22.80;99.90;;;;;;4111982;28;20134;-68
2022/08/20 03:59:16;;;;;;;6.82;5.28;;;22.80;99.90;;;;;;4111558;28;20579;-68
2022/08/20 04:01:16;;;;;;;5.63;4.68;;;22.80;99.90;;;;;;4107544;28;20066;-68
2022/08/20 04:03:18;;;;;;;5.95;4.95;;;22.80;99.90;;;;;;4111662;28;20142;-69
2022/08/20 04:05:19;;;;;;;6.47;5.10;;;22.80;99.90;;;;;;4104504;28;20031;-68
2022/08/20 04:07:24;;;;;;;7.35;5.05;;;22.80;99.90;;;;;;4106321;28;20478;-68
2022/08/20 04:09:25;;;;;;;6.35;5.22;;;22.80;99.90;;;;;;4103852;28;20027;-68
2022/08/20 04:11:25;;;;;;;7.78;5.25;;;22.80;99.90;;;;;;4105218;28;20086;-69
2022/08/20 04:13:28;;;;;;;5.15;4.18;;;22.90;99.90;;;;;;4112032;28;20031;-67
2022/08/20 04:15:30;;;;;;;6.22;5.13;;;22.90;99.90;;;;;;4110838;28;20057;-68
2022/08/20 04:17:32;;;;;;;5.33;4.80;;;22.90;99.90;;;;;;4108500;28;20054;-68
2022/08/20 04:19:34;;;;;;;6.15;5.00;;;22.90;99.90;;;;;;4110927;28;20476;-68
2022/08/20 04:21:35;;;;;;;5.70;4.23;;;22.80;99.90;;;;;;4109154;28;20094;-68
2022/08/20 04:23:36;;;;;;;5.75;4.57;;;22.80;99.90;;;;;;4111711;28;20273;-68
2022/08/20 04:25:39;;;;;;;5.95;5.10;;;22.80;99.90;;;;;;4110929;28;20027;-68
2022/08/20 04:27:40;;;;;;;5.55;4.95;;;22.90;99.90;;;;;;4111909;28;20398;-68
2022/08/20 04:29:44;;;;;;;9.02;5.47;;;22.90;99.90;;;;;;4108163;28;20040;-68
2022/08/20 04:31:45;;;;;;;6.22;4.93;;;22.90;99.90;;;;;;4106203;28;20118;-68
2022/08/20 04:33:45;;;;;;;6.10;4.50;;;22.90;99.90;;;;;;4112007;28;20398;-68
2022/08/20 04:35:46;;;;;;;5.72;4.88;;;22.90;99.90;;;;;;4110619;28;20089;-68
2022/08/20 04:37:47;;;;;;;6.28;4.97;;;22.90;99.90;;;;;;4111857;28;20035;-68
2022/08/20 04:40:52;;;;;;;6.63;5.35;;;22.80;99.90;;;;;;4113534;28;20037;-68
2022/08/20 04:42:09;;;;;;;6.70;4.95;;;22.80;99.90;;;;;;4112111;28;20031;-68
2022/08/20 04:44:10;;;;;;;6.25;5.22;;;22.80;99.90;;;;;;4115491;28;20130;-68
2022/08/20 04:46:12;;;;;;;6.80;5.05;;;22.80;99.90;;;;;;4106537;28;20097;-69
2022/08/20 04:48:14;;;;;;;6.35;4.97;;;22.80;99.90;;;;;;4104830;28;20034;-68
2022/08/20 04:50:16;;;;;;;6.25;4.65;;;22.80;99.90;;;;;;4113702;28;20035;-69
2022/08/20 04:52:17;;;;;;;6.30;4.85;;;22.80;99.90;;;;;;4114143;28;20383;-68
2022/08/20 04:54:17;;;;;;;5.28;4.78;;;22.80;99.90;;;;;;4115058;28;20101;-68
2022/08/20 04:56:22;;;;;;;7.78;5.55;;;22.80;99.90;;;;;;4111389;28;20041;-68
2022/08/20 04:58:29;;;;;;;11.20;5.22;;;22.70;99.90;;;;;;4114688;28;20097;-68
2022/08/20 05:00:30;;;;;;;5.20;4.65;;;22.70;99.90;;;;;;4110779;28;20070;-68
2022/08/20 05:02:31;;;;;;;6.68;5.55;;;22.70;99.90;;;;;;4114786;28;20117;-69
2022/08/20 05:04:31;;;;;;;5.63;4.80;;;22.70;99.90;;;;;;4114299;28;20038;-68
2022/08/20 05:06:32;;;;;;;7.22;5.43;;;22.70;99.90;;;;;;4110991;28;20504;-68
2022/08/20 05:08:35;;;;;;;6.80;5.13;;;22.70;99.90;;;;;;4107936;28;20458;-68
2022/08/20 05:10:37;;;;;;;7.55;5.75;;;22.70;99.90;;;;;;4090604;29;20174;-68
2022/08/20 05:12:39;;;;;;;7.00;5.22;;;22.70;99.90;;;;;;4114515;28;20082;-68
2022/08/20 05:14:40;;;;;;;6.20;5.35;;;22.70;99.90;;;;;;4114035;28;20027;-68
2022/08/20 05:16:41;;;;;;;8.50;6.32;;;22.70;99.90;;;;;;4113307;28;20121;-68
2022/08/20 05:18:43;;;;;;;7.47;5.90;;;22.70;99.90;;;;;;4117923;28;20038;-68
2022/08/20 05:20:45;;;;;;;9.70;6.28;;;22.60;99.90;;;;;;4111133;28;20067;-68
2022/08/20 05:22:45;;;;;;;6.07;5.15;;;22.60;99.90;;;;;;4114030;28;20030;-68
2022/08/20 05:24:46;;;;;;;7.57;5.75;;;22.60;99.90;;;;;;4117065;28;20431;-68
2022/08/20 05:26:46;;;;;;;9.23;6.20;;;22.60;99.90;;;;;;4115755;28;20050;-68
2022/08/20 05:28:48;;;;;;;7.78;5.43;;;22.60;99.90;;;;;;4118498;28;20063;-68
2022/08/20 05:30:51;;;;;;;7.57;5.93;;;22.60;99.90;;;;;;4116002;28;20098;-68
2022/08/20 05:32:51;;;;;;;10.70;6.03;;;22.60;99.90;;;;;;4118884;28;20038;-68
2022/08/20 05:34:53;;;;;;;7.35;6.00;;;22.60;99.90;;;;;;4097427;28;20371;-68
2022/08/20 05:36:53;;;;;;;6.90;5.57;;;22.60;99.90;;;;;;4100959;28;20086;-68
2022/08/20 05:38:54;;;;;;;8.40;5.72;;;22.60;99.90;;;;;;4115868;28;20042;-68
2022/08/20 05:40:55;;;;;;;9.23;6.57;;;22.60;99.90;;;;;;4111414;28;20050;-81
2022/08/20 05:42:55;;;;;;;8.68;6.35;;;22.60;99.90;;;;;;4112373;28;20486;-81
2022/08/20 05:44:56;;;;;;;9.02;6.85;;;22.60;99.90;;;;;;4106842;28;20171;-81
2022/08/20 05:46:57;;;;;;;10.93;7.32;;;22.60;99.90;;;;;;4091904;28;20379;-81
2022/08/20 05:49:00;;;;;;;8.65;6.43;;;22.60;99.90;;;;;;4110541;28;20045;-82
2022/08/20 05:51:00;;;;;;;15.52;9.27;;;22.60;99.90;;;;;;4109445;28;20050;-81
2022/08/20 05:53:01;;;;;;;15.30;8.00;;;22.60;99.90;;;;;;4111000;28;20035;-81
2022/08/20 05:55:08;;;;;;;9.25;7.60;;;22.50;99.90;;;;;;4109207;28;20655;-82
2022/08/20 05:57:08;;;;;;;11.02;7.97;;;22.60;99.90;;;;;;4105331;28;20375;-82
2022/08/20 05:59:11;;;;;;;10.15;8.30;;;22.50;99.90;;;;;;4110658;28;20041;-82
2022/08/20 06:01:11;;;;;;;18.13;9.93;;;22.50;99.90;;;;;;4108361;28;20049;-82
2022/08/20 06:05:31;;;;;;;11.55;8.82;;;22.40;99.90;;;;;;4102895;28;20130;-80
2022/08/20 06:07:32;;;;;;;10.63;8.05;;;22.40;99.90;;;;;;4107886;28;20027;-78
2022/08/20 06:09:34;;;;;;;10.40;7.65;;;22.40;99.90;;;;;;4108796;28;20050;-79
2022/08/20 06:11:35;;;;;;;;;;;22.40;99.90;;;;;;4105937;28;20039;-82
2022/08/20 06:13:36;;;;;;;14.85;9.48;;;22.30;99.90;;;;;;4111414;28;19917;-78
2022/08/20 06:15:37;;;;;;;9.93;7.93;;;22.20;99.90;;;;;;4112391;28;20046;-81
2022/08/20 06:17:38;;;;;;;10.18;7.38;;;22.20;99.90;;;;;;4112906;28;20397;-81
2022/08/20 06:19:40;;;;;;;12.23;8.00;;;22.20;99.90;;;;;;4112413;28;20027;-80
2022/08/20 06:21:40;;;;;;;10.20;7.75;;;22.10;99.90;;;;;;4112724;28;20292;-78
2022/08/20 06:23:41;;;;;;;12.45;8.93;;;22.10;99.90;;;;;;4098609;28;20051;-79
2022/08/20 06:25:42;;;;;;;11.38;8.15;;;22.10;99.90;;;;;;4099409;28;20095;-80
2022/08/20 06:27:42;;;;;;;7.95;6.88;;;22.10;99.90;;;;;;4112185;28;20049;-80
2022/08/20 06:29:43;;;;;;;8.00;6.82;;;22.10;99.90;;;;;;4111166;28;20031;-79
2022/08/20 06:31:45;;;;;;;9.05;6.97;;;22.10;99.90;;;;;;4114810;28;20478;-80
2022/08/20 06:33:45;;;;;;;8.82;7.00;;;22.10;99.90;;;;;;4108351;28;20040;-77
2022/08/20 06:35:47;;;;;;;8.95;6.60;;;22.10;99.90;;;;;;4108235;28;20031;-80
2022/08/20 06:37:49;;;;;;;10.80;8.20;;;22.20;99.90;;;;;;4113366;28;20042;-79
2022/08/20 06:39:50;;;;;;;13.63;9.68;;;22.20;99.90;;;;;;4113411;28;20026;-77
2022/08/20 06:41:51;;;;;;;11.25;8.98;;;22.20;99.90;;;;;;4111514;28;20059;-81
2022/08/20 06:43:52;;;;;;;13.50;9.93;;;22.20;99.90;;;;;;4112797;28;20034;-74
2022/08/20 06:45:56;;;;;;;13.43;9.85;;;22.20;99.90;;;;;;4095375;29;20031;-78
2022/08/20 06:47:59;;;;;;;11.82;10.35;;;22.20;99.90;;;;;;4113170;28;20035;-76
2022/08/20 06:50:00;;;;;;;11.80;9.50;;;22.30;99.90;;;;;;4117219;28;20084;-75
2022/08/20 06:52:03;;;;;;;10.00;8.50;;;22.30;99.90;;;;;;4110281;28;20485;-77
2022/08/20 06:54:04;;;;;;;14.95;11.00;;;22.40;99.90;;;;;;4113026;28;20038;-76
2022/08/20 06:56:05;;;;;;;16.48;12.88;;;22.40;99.90;;;;;;4114857;28;20039;-74
2022/08/20 06:58:10;;;;;;;15.55;12.00;;;22.40;99.90;;;;;;4101167;28;20119;-76
2022/08/20 07:00:17;;;;;;;15.38;12.45;;;22.30;99.90;;;;;;4115131;28;20043;-75
2022/08/20 07:02:18;;;;;;;19.50;13.82;;;22.30;99.90;;;;;;4112543;28;20042;-76
2022/08/20 07:04:18;;;;;;;21.42;15.93;;;22.40;99.90;;;;;;4113103;28;20037;-75
2022/08/20 07:06:19;;;;;;;21.85;15.93;;;22.30;99.90;;;;;;4111541;28;20047;-77
2022/08/20 07:08:21;;;;;;;21.42;15.48;;;22.20;99.90;;;;;;4111706;28;20497;-77
2022/08/20 07:10:23;;;;;;;24.87;19.10;;;22.20;99.90;;;;;;4111066;28;20029;-77
2022/08/20 07:12:25;;;;;;;32.78;21.88;;;22.20;99.90;;;;;;4107015;28;20050;-76
2022/08/20 07:14:25;;;;;;;29.60;21.55;;;22.00;99.90;;;;;;4099055;28;20126;-74
2022/08/20 07:16:26;;;;;;;25.02;19.92;;;21.90;99.90;;;;;;4107028;28;20517;-77
2022/08/20 07:18:27;;;;;;;20.05;16.98;;;21.90;99.90;;;;;;4107560;28;20046;-76
2022/08/20 07:20:29;;;;;;;29.27;21.88;;;21.90;99.90;;;;;;4104785;28;20031;-74
2022/08/20 07:22:29;;;;;;;24.15;18.17;;;21.90;99.90;;;;;;4108744;28;20038;-71
2022/08/20 07:24:30;;;;;;;28.63;20.50;;;21.90;99.90;;;;;;4106591;28;20093;-75
2022/08/20 07:26:31;;;;;;;24.58;19.02;;;21.90;99.90;;;;;;4109011;28;20046;-75
2022/08/20 07:28:31;;;;;;;26.45;19.92;;;21.90;99.90;;;;;;4110981;28;20110;-76
2022/08/20 07:32:52;;;;;;;30.65;21.73;;;21.80;99.90;;;;;;4110041;28;20402;-72
2022/08/20 07:34:53;;;;;;;22.90;17.85;;;21.80;99.90;;;;;;4109091;28;20031;-74
2022/08/20 07:36:57;;;;;;;23.40;17.77;;;21.80;99.90;;;;;;4109183;28;20034;-71
2022/08/20 07:38:58;;;;;;;24.55;18.90;;;21.80;99.90;;;;;;4110021;28;20039;-74
2022/08/20 07:41:04;;;;;;;29.00;20.63;;;21.80;99.90;;;;;;4108844;28;20035;-72
2022/08/20 07:43:05;;;;;;;25.83;18.73;;;21.70;99.90;;;;;;4111843;28;20030;-72
2022/08/20 07:45:09;;;;;;;27.20;20.50;;;21.70;99.90;;;;;;4110878;28;20513;-73
2022/08/20 07:47:11;;;;;;;34.63;21.30;;;21.70;99.90;;;;;;4111577;28;20076;-74
2022/08/20 07:49:11;;;;;;;29.55;20.83;;;21.70;99.90;;;;;;4111604;28;20126;-73
2022/08/20 07:51:15;;;;;;;31.48;20.45;;;21.60;99.90;;;;;;4108490;28;20047;-74
2022/08/20 07:53:16;;;;;;;28.95;20.27;;;21.60;99.90;;;;;;4110228;28;20401;-72
2022/08/20 07:55:18;;;;;;;32.83;24.05;;;21.60;99.90;;;;;;4110841;28;20023;-74
2022/08/20 07:57:18;;;;;;;27.15;19.98;;;21.50;99.90;;;;;;4107868;28;20054;-68
2022/08/20 07:59:19;;;;;;;31.45;19.42;;;21.60;99.90;;;;;;4107519;28;20066;-68
2022/08/20 08:01:27;;;;;;;25.08;18.67;;;21.60;99.90;;;;;;4106047;28;20130;-68
2022/08/20 08:03:28;;;;;;;24.95;17.58;;;21.70;99.90;;;;;;4105033;28;20486;-68
2022/08/20 08:05:30;;;;;;;26.10;18.33;;;21.80;99.90;;;;;;4104936;28;20046;-68
2022/08/20 08:07:32;;;;;;;28.08;17.75;;;21.90;99.90;;;;;;4106003;28;20051;-67
2022/08/20 08:09:33;;;;;;;23.10;16.03;;;22.00;99.90;;;;;;4106307;28;20042;-69
2022/08/20 08:11:37;;;;;;;20.20;15.30;;;22.10;99.90;;;;;;4107646;28;20441;-68
2022/08/20 08:13:39;;;;;;;25.45;17.17;;;22.20;99.90;;;;;;4102079;28;20109;-69
2022/08/20 08:15:45;;;;;;;21.65;16.75;;;22.40;99.90;;;;;;4104714;28;20034;-68
2022/08/20 08:17:47;;;;;;;28.45;17.95;;;22.30;99.90;;;;;;4112876;28;20041;-68
2022/08/20 08:19:49;;;;;;;27.38;19.48;;;22.30;99.90;;;;;;4115794;28;20031;-69
2022/08/20 08:21:50;;;;;;;30.15;18.73;;;22.30;99.90;;;;;;4108323;28;20510;-68
2022/08/20 08:23:52;;;;;;;21.70;14.98;;;22.20;99.90;;;;;;4111571;28;20086;-68
2022/08/20 08:25:52;;;;;;;20.67;14.18;;;22.20;99.90;;;;;;4110861;28;20034;-67
2022/08/20 08:27:53;;;;;;;18.38;13.40;;;22.30;99.90;;;;;;4109206;28;20088;-68
2022/08/20 08:29:53;;;;;;;26.08;18.70;;;22.30;99.90;;;;;;4111720;28;20082;-67
2022/08/20 08:31:55;;;;;;;19.33;13.65;;;22.20;99.90;;;;;;4108031;28;20045;-68
2022/08/20 08:33:55;;;;;;;23.38;15.10;;;22.30;99.90;;;;;;4110845;28;21154;-68
2022/08/20 08:35:58;;;;;;;16.20;12.48;;;22.40;99.90;;;;;;4092363;29;20468;-68
2022/08/20 08:38:01;;;;;;;20.42;13.30;;;22.40;99.90;;;;;;4113370;28;20031;-68
2022/08/20 08:40:03;;;;;;;26.85;16.80;;;22.40;99.90;;;;;;4109823;28;20042;-70
2022/08/20 08:42:34;;;;;;;22.00;13.45;;;22.40;99.90;;;;;;4107190;28;20031;-68
2022/08/20 08:44:40;;;;;;;16.20;12.55;;;22.50;99.90;;;;;;4105274;28;20023;-68
2022/08/20 08:46:43;;;;;;;25.90;16.63;;;22.50;99.90;;;;;;4111239;28;20098;-68
2022/08/20 08:48:47;;;;;;;21.67;14.73;;;22.50;99.90;;;;;;4112214;28;20038;-68
2022/08/20 08:50:50;;;;;;;21.77;15.75;;;22.50;99.90;;;;;;4108736;28;20062;-68
2022/08/20 08:52:56;;;;;;;18.15;13.02;;;22.50;99.90;;;;;;4112208;28;20035;-68
2022/08/20 08:55:01;;;;;;;24.85;14.95;;;22.50;99.90;;;;;;4106661;28;20120;-68
2022/08/20 08:57:02;;;;;;;17.08;12.65;;;22.60;99.90;;;;;;4105267;28;20086;-68
2022/08/20 08:59:07;;;;;;;27.95;15.90;;;22.60;99.90;;;;;;4104943;28;20110;-68
2022/08/20 09:01:14;;;;;;;24.27;17.08;;;22.60;99.90;;;;;;4109174;28;20031;-69
2022/08/20 09:03:24;;;;;;;22.75;14.65;;;22.50;99.90;;;;;;4111127;28;20490;-68
2022/08/20 09:05:37;;;;;;;29.88;17.20;;;22.50;99.90;;;;;;4109273;28;20066;-67
2022/08/20 09:07:38;;;;;;;28.40;16.25;;;22.50;99.90;;;;;;4110101;28;20027;-67
2022/08/20 09:09:42;;;;;;;21.23;15.15;;;22.30;99.90;;;;;;4111800;28;20031;-67
2022/08/20 09:11:50;;;;;;;29.95;16.77;;;22.40;99.90;;;;;;4108268;28;20498;-67
2022/08/20 09:13:53;;;;;;;22.63;14.77;;;22.30;99.90;;;;;;4111285;28;20090;-68
2022/08/20 09:15:53;;;;;;;22.13;15.10;;;22.40;99.90;;;;;;4110344;28;20483;-67
2022/08/20 09:17:54;;;;;;;27.63;17.50;;;22.50;99.90;;;;;;4111488;28;20027;-68
2022/08/20 09:19:54;;;;;;;26.10;15.88;;;22.60;99.90;;;;;;4111651;28;20027;-69
2022/08/20 09:21:56;;;;;;;26.08;17.60;;;22.60;99.90;;;;;;4108893;28;20102;-68
2022/08/20 09:23:57;;;;;;;30.40;16.87;;;22.60;99.90;;;;;;4110793;28;20059;-68
2022/08/20 09:25:57;;;;;;;26.05;16.10;;;22.50;99.90;;;;;;4113087;28;20038;-67
2022/08/20 09:27:58;;;;;;;28.35;15.93;;;22.60;99.90;;;;;;4114159;28;20034;-68
2022/08/20 09:29:59;;;;;;;26.42;15.40;;;22.60;99.90;;;;;;4114479;28;20154;-68
2022/08/20 09:32:16;;;;;;;28.27;14.60;;;22.70;99.90;;;;;;4111107;28;20023;-68
2022/08/20 09:34:17;;;;;;;21.83;12.75;;;22.70;99.90;;;;;;4109113;28;20042;-67
2022/08/20 09:36:18;;;;;;;29.73;15.77;;;22.80;99.90;;;;;;4111874;28;20043;-68
2022/08/20 09:38:19;;;;;;;27.38;15.88;;;22.90;99.90;;;;;;4114188;28;20030;-68
2022/08/20 09:40:21;;;;;;;24.65;15.13;;;22.90;99.90;;;;;;4112527;28;20042;-68
2022/08/20 09:42:32;;;;;;;23.15;15.05;;;22.90;99.90;;;;;;4113332;28;20394;-68
2022/08/20 09:44:33;;;;;;;28.50;14.97;;;23.00;99.90;;;;;;4109063;28;20475;-68
2022/08/20 09:46:34;;;;;;;24.27;14.98;;;23.00;99.90;;;;;;4107306;28;20045;-68
2022/08/20 09:48:35;;;;;;;29.17;15.57;;;23.10;99.90;;;;;;4114193;28;20035;-68
2022/08/20 09:50:37;;;;;;;31.25;17.52;;;23.10;99.90;;;;;;4109544;28;20507;-69
2022/08/20 09:52:41;;;;;;;;;;;23.20;99.90;;;;;;4113604;28;20034;-68
2022/08/20 09:54:41;;;;;;;;;;;23.30;99.90;;;;;;4114745;28;19918;-68
2022/08/20 09:56:42;;;;;;;30.33;16.00;;;23.30;99.90;;;;;;4113063;28;19911;-68
2022/08/20 09:58:47;;;;;;;24.60;15.60;;;23.40;99.90;;;;;;4114375;28;20054;-67
2022/08/20 10:00:47;;;;;;;19.25;12.50;;;23.40;99.90;;;;;;4111802;28;20031;-68
2022/08/20 10:02:48;;;;;;;22.55;14.52;;;23.40;99.90;;;;;;4113708;28;20050;-69
2022/08/20 10:04:49;;;;;;;27.75;15.77;;;23.50;99.90;;;;;;4114137;28;20027;-68
2022/08/20 10:06:51;;;;;;;27.80;17.58;;;23.50;99.90;;;;;;4112560;28;20410;-68
2022/08/20 10:08:51;;;;;;;27.17;15.53;;;23.50;99.90;;;;;;4113215;28;20059;-68
2022/08/20 10:10:52;;;;;;;32.75;17.85;;;23.60;99.90;;;;;;4110902;28;20760;-68
2022/08/20 10:12:53;;;;;;;24.70;14.43;;;23.70;99.90;;;;;;4114014;28;20429;-68
2022/08/20 10:14:54;;;;;;;21.10;14.13;;;23.70;99.90;;;;;;4113792;28;20050;-68
2022/08/20 10:16:56;;;;;;;26.25;15.38;;;23.80;99.90;;;;;;4108683;28;20101;-69
2022/08/20 10:18:57;;;;;;;25.70;16.70;;;23.80;99.90;;;;;;4113979;28;20039;-68
2022/08/20 10:20:57;;;;;;;21.08;15.07;;;23.70;99.90;;;;;;4111343;28;20098;-68
2022/08/20 10:22:58;;;;;;;26.10;16.60;;;23.70;99.90;;;;;;4112688;28;20027;-69
2022/08/20 10:24:59;;;;;;;24.13;13.90;;;23.70;99.90;;;;;;4113906;28;20482;-68
2022/08/20 10:27:01;;;;;;;22.83;13.65;;;23.70;99.90;;;;;;4111687;28;20049;-69
2022/08/20 10:29:01;;;;;;;18.60;12.43;;;23.70;99.90;;;;;;4112322;28;20059;-69
2022/08/20 10:31:05;;;;;;;24.58;15.80;;;23.70;99.90;;;;;;4110682;28;20039;-68
2022/08/20 10:33:05;;;;;;;25.15;15.15;;;23.70;99.90;;;;;;4112073;28;20027;-69
2022/08/20 10:35:06;;;;;;;23.20;14.45;;;23.70;99.90;;;;;;4108711;28;20058;-68
2022/08/20 10:37:08;;;;;;;23.10;15.30;;;23.70;99.90;;;;;;4110692;28;20516;-68